createdAt,value
2022-08-19T00:00:35.110Z,22.60
2022-08-19T00:03:05.528Z,22.50
2022-08-19T00:05:35.817Z,22.50
2022-08-19T00:08:06.468Z,22.40
2022-08-19T00:10:39.373Z,22.40
2022-08-19T00:13:09.533Z,22.30
2022-08-19T00:15:39.669Z,22.30
2022-08-19T00:18:09.915Z,22.30
2022-08-19T00:20:44.000Z,22.30
2022-08-19T00:23:14.216Z,22.30
2022-08-19T00:25:48.759Z,22.30
2022-08-19T00:28:19.315Z,22.30
2022-08-19T00:30:49.490Z,22.30
2022-08-19T00:33:19.627Z,22.40
2022-08-19T00:35:56.057Z,22.30
2022-08-19T00:38:34.972Z,22.40
2022-08-19T00:41:11.810Z,22.40
2022-08-19T00:43:42.366Z,22.40
2022-08-19T00:46:12.694Z,22.40
2022-08-19T00:48:43.409Z,22.30
2022-08-19T00:51:13.589Z,22.30
2022-08-19T00:53:44.697Z,22.30
2022-08-19T00:56:18.374Z,22.20
2022-08-19T00:58:48.672Z,22.20
2022-08-19T01:01:18.885Z,22.10
2022-08-19T01:03:58.077Z,22.10
2022-08-19T01:06:29.189Z,22.20
2022-08-19T01:08:59.359Z,22.10
2022-08-19T01:11:34.087Z,22.10
2022-08-19T01:14:04.677Z,22.10
2022-08-19T01:16:36.355Z,22.10
2022-08-19T01:19:07.792Z,22.10
2022-08-19T01:21:45.039Z,22.10
2022-08-19T01:24:17.922Z,22.20
2022-08-19T01:26:49.295Z,22.20
2022-08-19T01:29:19.832Z,22.30
2022-08-19T01:31:53.266Z,22.20
2022-08-19T01:34:24.452Z,22.20
2022-08-19T01:36:54.607Z,22.20
2022-08-19T01:39:29.538Z,22.30
2022-08-19T01:41:59.762Z,22.30
2022-08-19T01:44:30.004Z,22.30
2022-08-19T01:47:00.421Z,22.20
2022-08-19T01:49:30.340Z,22.20
2022-08-19T01:52:00.804Z,22.20
2022-08-19T01:54:33.358Z,22.20
2022-08-19T01:57:07.824Z,22.10
2022-08-19T01:59:38.534Z,22.20
2022-08-19T02:02:10.102Z,22.10
2022-08-19T02:04:41.673Z,22.10
2022-08-19T02:07:12.606Z,22.10
2022-08-19T02:09:45.444Z,22.10
2022-08-19T02:12:15.617Z,22.10
2022-08-19T02:14:45.897Z,22.10
2022-08-19T02:17:16.078Z,22.00
2022-08-19T02:19:46.202Z,22.00
2022-08-19T02:22:16.338Z,22.00
2022-08-19T02:24:49.173Z,21.90
2022-08-19T02:27:19.406Z,21.90
2022-08-19T02:29:50.588Z,21.90
2022-08-19T02:32:21.759Z,21.90
2022-08-19T02:34:52.403Z,21.80
2022-08-19T02:37:35.048Z,21.80
2022-08-19T02:40:12.475Z,21.70
2022-08-19T02:42:44.635Z,21.70
2022-08-19T02:45:15.199Z,21.70
2022-08-19T02:47:45.418Z,21.70
2022-08-19T02:50:15.833Z,21.70
2022-08-19T02:52:46.503Z,21.70
2022-08-19T02:55:20.047Z,21.60
2022-08-19T02:57:50.159Z,21.60
2022-08-19T03:00:20.613Z,21.50
2022-08-19T03:02:50.805Z,21.50
2022-08-19T03:05:21.030Z,21.50
2022-08-19T03:08:13.231Z,21.50
2022-08-19T03:10:52.984Z,21.50
2022-08-19T03:13:24.409Z,21.50
2022-08-19T03:15:54.751Z,21.50
2022-08-19T03:18:25.242Z,21.50
2022-08-19T03:20:57.172Z,21.50
2022-08-19T03:23:27.740Z,21.50
2022-08-19T03:26:15.813Z,21.50
2022-08-19T03:28:57.997Z,21.50
2022-08-19T03:31:43.423Z,21.40
2022-08-19T03:34:18.844Z,21.40
2022-08-19T03:36:49.471Z,21.30
2022-08-19T03:39:19.901Z,21.30
2022-08-19T03:42:32.285Z,21.30
2022-08-19T03:44:45.756Z,21.20
2022-08-19T03:47:18.078Z,21.20
2022-08-19T03:49:48.671Z,21.30
2022-08-19T03:52:18.503Z,21.20
2022-08-19T03:54:48.708Z,21.20
2022-08-19T03:57:21.816Z,21.20
2022-08-19T04:00:03.749Z,21.20
2022-08-19T04:02:58.171Z,21.20
2022-08-19T04:05:32.319Z,21.20
2022-08-19T04:08:02.613Z,21.20
2022-08-19T04:10:32.932Z,21.10
2022-08-19T04:13:06.448Z,21.20
2022-08-19T04:15:40.629Z,21.10
2022-08-19T04:18:10.986Z,21.10
2022-08-19T04:20:46.378Z,21.10
2022-08-19T04:23:17.326Z,21.10
2022-08-19T04:25:48.762Z,21.10
2022-08-19T04:28:21.979Z,21.00
2022-08-19T04:30:55.385Z,21.10
2022-08-19T04:33:29.699Z,21.00
2022-08-19T04:35:59.900Z,21.00
2022-08-19T04:38:30.225Z,21.00
2022-08-19T04:41:18.570Z,21.00
2022-08-19T04:43:51.609Z,21.00
2022-08-19T04:46:40.224Z,21.00
2022-08-19T04:49:13.262Z,20.90
2022-08-19T04:51:46.006Z,20.90
2022-08-19T04:54:25.852Z,20.80
2022-08-19T04:57:08.257Z,20.80
2022-08-19T04:59:42.946Z,20.80
2022-08-19T05:02:13.425Z,20.70
2022-08-19T05:04:43.865Z,20.70
2022-08-19T05:07:14.008Z,20.70
2022-08-19T05:09:57.717Z,20.50
2022-08-19T05:12:30.155Z,20.60
2022-08-19T05:15:03.367Z,20.60
2022-08-19T05:17:38.054Z,20.50
2022-08-19T05:20:21.801Z,20.50
2022-08-19T05:22:51.775Z,20.50
2022-08-19T05:25:25.795Z,20.40
2022-08-19T05:27:55.985Z,20.50
2022-08-19T05:30:46.172Z,20.50
2022-08-19T05:33:17.226Z,20.50
2022-08-19T05:35:49.495Z,20.50
2022-08-19T05:38:20.415Z,20.50
2022-08-19T05:40:50.789Z,20.70
2022-08-19T05:43:20.915Z,20.60
2022-08-19T05:45:53.875Z,20.50
2022-08-19T05:48:24.031Z,20.50
2022-08-19T05:50:54.255Z,20.50
2022-08-19T05:53:24.413Z,20.40
2022-08-19T05:55:54.792Z,20.40
2022-08-19T05:58:28.200Z,20.40
2022-08-19T06:01:05.471Z,20.30
2022-08-19T06:03:36.690Z,20.30
2022-08-19T06:06:07.126Z,20.40
2022-08-19T06:08:37.663Z,20.40
2022-08-19T06:11:18.020Z,20.50
2022-08-19T06:13:51.598Z,20.40
2022-08-19T06:16:25.316Z,20.40
2022-08-19T06:18:57.523Z,20.50
2022-08-19T06:21:29.874Z,20.60
2022-08-19T06:24:00.919Z,20.60
2022-08-19T06:26:31.210Z,20.70
2022-08-19T06:29:01.521Z,20.90
2022-08-19T06:31:34.924Z,20.80
2022-08-19T06:34:06.406Z,20.70
2022-08-19T06:36:42.107Z,20.80
2022-08-19T06:39:13.867Z,20.90
2022-08-19T06:41:52.445Z,21.00
2022-08-19T06:44:26.637Z,21.00
2022-08-19T06:47:00.357Z,21.00
2022-08-19T06:49:32.554Z,21.10
2022-08-19T06:52:03.652Z,21.10
2022-08-19T06:54:37.735Z,21.20
2022-08-19T06:57:24.884Z,21.20
2022-08-19T06:59:55.841Z,21.20
2022-08-19T07:02:29.235Z,21.20
2022-08-19T07:05:00.237Z,21.30
2022-08-19T07:07:32.604Z,21.30
2022-08-19T07:10:06.201Z,21.40
2022-08-19T07:12:38.382Z,21.60
2022-08-19T07:15:11.003Z,21.70
2022-08-19T07:17:44.661Z,21.80
2022-08-19T07:20:17.049Z,22.00
2022-08-19T07:22:49.338Z,22.10
2022-08-19T07:25:22.042Z,22.20
2022-08-19T07:28:02.798Z,22.20
2022-08-19T07:30:33.417Z,22.10
2022-08-19T07:33:07.573Z,22.10
2022-08-19T07:35:37.798Z,22.20
2022-08-19T07:38:08.608Z,22.10
2022-08-19T07:40:38.796Z,22.10
2022-08-19T07:43:12.327Z,22.10
2022-08-19T07:45:44.490Z,22.20
2022-08-19T07:48:17.840Z,22.30
2022-08-19T07:50:49.537Z,22.40
2022-08-19T07:53:20.664Z,22.50
2022-08-19T07:55:51.275Z,22.60
2022-08-19T07:58:24.530Z,22.60
2022-08-19T08:00:55.266Z,22.50
2022-08-19T08:03:48.611Z,22.50
2022-08-19T08:06:32.122Z,22.60
2022-08-19T08:09:18.683Z,22.70
2022-08-19T08:11:51.922Z,22.60
2022-08-19T08:14:29.697Z,22.50
2022-08-19T08:17:10.904Z,22.50
2022-08-19T08:19:44.954Z,22.60
2022-08-19T08:22:36.571Z,22.50
2022-08-19T08:25:08.464Z,22.50
2022-08-19T08:27:40.697Z,22.40
2022-08-19T08:30:12.419Z,22.40
2022-08-19T08:32:44.145Z,22.30
2022-08-19T08:35:20.683Z,22.40
2022-08-19T08:37:53.007Z,22.50
2022-08-19T08:40:30.925Z,22.50
2022-08-19T08:43:07.411Z,22.60
2022-08-19T08:45:53.473Z,22.60
2022-08-19T08:48:28.636Z,22.70
2022-08-19T08:51:04.859Z,22.70
2022-08-19T08:53:40.475Z,22.60
2022-08-19T08:56:17.051Z,22.60
2022-08-19T08:58:58.414Z,22.50
2022-08-19T09:01:29.066Z,22.50
2022-08-19T09:04:03.038Z,22.50
2022-08-19T09:06:44.154Z,22.30
2022-08-19T09:09:20.648Z,22.30
2022-08-19T09:12:00.578Z,22.30
2022-08-19T09:14:51.447Z,22.20
2022-08-19T09:17:32.258Z,22.10
2022-08-19T09:20:09.213Z,22.10
2022-08-19T09:22:45.420Z,22.00
2022-08-19T09:25:17.864Z,22.10
2022-08-19T09:28:01.191Z,22.20
2022-08-19T09:30:35.510Z,22.10
2022-08-19T09:33:06.348Z,22.00
2022-08-19T09:35:49.884Z,21.80
2022-08-19T09:38:25.887Z,21.80
2022-08-19T09:40:56.045Z,21.90
2022-08-19T09:43:33.935Z,21.90
2022-08-19T09:46:18.065Z,21.90
2022-08-19T09:48:49.525Z,21.90
2022-08-19T09:51:22.257Z,22.00
2022-08-19T09:53:58.559Z,22.10
2022-08-19T09:56:28.839Z,22.00
2022-08-19T09:58:59.148Z,22.00
2022-08-19T10:01:31.713Z,22.00
2022-08-19T10:04:09.436Z,22.10
2022-08-19T10:06:53.420Z,22.10
2022-08-19T10:09:34.359Z,22.10
2022-08-19T10:12:06.311Z,22.10
2022-08-19T10:14:41.453Z,22.00
2022-08-19T10:17:19.384Z,22.10
2022-08-19T10:19:55.218Z,22.10
2022-08-19T10:22:26.457Z,22.10
2022-08-19T10:24:58.925Z,22.00
2022-08-19T10:27:29.156Z,21.90
2022-08-19T10:30:02.595Z,22.00
2022-08-19T10:32:34.178Z,21.90
2022-08-19T10:35:07.119Z,21.80
2022-08-19T10:37:38.032Z,21.80
2022-08-19T10:40:30.228Z,21.90
2022-08-19T10:43:00.361Z,21.70
2022-08-19T10:45:33.414Z,21.70
2022-08-19T10:48:03.650Z,21.80
2022-08-19T10:50:46.330Z,21.90
2022-08-19T10:53:17.782Z,21.90
2022-08-19T10:56:02.969Z,22.00
2022-08-19T10:58:33.155Z,22.10
2022-08-19T11:01:03.607Z,22.20
2022-08-19T11:03:33.985Z,22.20
2022-08-19T11:06:04.977Z,22.20
2022-08-19T11:08:35.990Z,22.10
2022-08-19T11:11:10.375Z,22.10
2022-08-19T11:13:45.248Z,22.10
2022-08-19T11:16:17.772Z,22.20
2022-08-19T11:18:49.252Z,22.20
2022-08-19T11:21:21.568Z,22.20
2022-08-19T11:23:53.626Z,22.20
2022-08-19T11:26:27.207Z,22.30
2022-08-19T11:28:57.866Z,22.30
2022-08-19T11:31:29.966Z,22.30
2022-08-19T11:34:00.987Z,22.40
2022-08-19T11:36:32.440Z,22.40
2022-08-19T11:39:02.844Z,22.50
2022-08-19T11:41:35.336Z,22.60
2022-08-19T11:44:06.063Z,22.60
2022-08-19T11:46:36.278Z,22.80
2022-08-19T11:49:13.828Z,22.90
2022-08-19T11:51:45.789Z,23.00
2022-08-19T11:54:18.191Z,23.10
2022-08-19T11:56:50.909Z,23.30
2022-08-19T11:59:21.009Z,23.40
2022-08-19T12:01:51.124Z,23.50
2022-08-19T12:04:21.358Z,23.60
2022-08-19T12:06:51.340Z,23.70
2022-08-19T12:09:21.074Z,23.70
2022-08-19T12:11:54.982Z,23.90
2022-08-19T12:14:25.219Z,24.20
2022-08-19T12:16:55.000Z,24.40
2022-08-19T12:19:25.743Z,24.50
2022-08-19T12:21:58.147Z,24.40
2022-08-19T12:24:30.466Z,24.40
2022-08-19T12:27:03.407Z,24.50
2022-08-19T12:29:34.830Z,24.40
2022-08-19T12:32:05.296Z,24.50
2022-08-19T12:34:38.233Z,24.60
2022-08-19T12:37:09.845Z,24.70
2022-08-19T12:39:42.869Z,24.70
2022-08-19T12:42:16.972Z,24.80
2022-08-19T12:44:47.681Z,24.70
2022-08-19T12:47:19.206Z,24.70
2022-08-19T12:49:53.760Z,24.70
2022-08-19T12:52:28.423Z,24.70
2022-08-19T12:55:00.215Z,24.70
2022-08-19T12:57:34.315Z,24.60
2022-08-19T13:00:08.964Z,24.60
2022-08-19T13:02:39.409Z,24.60
2022-08-19T13:05:12.658Z,24.60
2022-08-19T13:07:45.008Z,24.70
2022-08-19T13:10:17.344Z,24.80
2022-08-19T13:12:52.072Z,24.80
2022-08-19T13:15:24.476Z,24.70
2022-08-19T13:17:57.319Z,24.70
2022-08-19T13:20:28.555Z,24.70
2022-08-19T13:22:58.991Z,24.70
2022-08-19T13:25:29.403Z,24.60
2022-08-19T13:28:03.311Z,24.80
2022-08-19T13:30:45.847Z,24.90
2022-08-19T13:33:16.576Z,25.00
2022-08-19T13:35:50.235Z,25.10
2022-08-19T13:38:21.974Z,25.20
2022-08-19T13:40:54.132Z,25.20
2022-08-19T13:43:30.429Z,25.20
2022-08-19T13:46:01.154Z,25.30
2022-08-19T13:48:32.214Z,25.30
2022-08-19T13:51:02.423Z,25.40
2022-08-19T13:53:32.356Z,25.50
2022-08-19T13:56:02.485Z,25.40
2022-08-19T13:58:34.930Z,25.50
2022-08-19T14:01:05.225Z,25.50
2022-08-19T14:03:36.639Z,25.50
2022-08-19T14:06:06.914Z,25.60
2022-08-19T14:08:45.558Z,25.60
2022-08-19T14:11:17.044Z,25.60
2022-08-19T14:13:49.766Z,25.50
2022-08-19T14:16:19.943Z,25.40
2022-08-19T14:18:49.793Z,25.30
2022-08-19T14:21:21.197Z,25.20
2022-08-19T14:23:51.226Z,25.10
2022-08-19T14:26:23.603Z,25.10
2022-08-19T14:28:58.950Z,25.10
2022-08-19T14:31:30.891Z,25.00
2022-08-19T14:34:02.074Z,25.00
2022-08-19T14:36:36.339Z,24.80
2022-08-19T14:39:10.540Z,24.70
2022-08-19T14:41:43.616Z,24.60
2022-08-19T14:44:16.510Z,24.50
2022-08-19T14:46:49.607Z,24.30
2022-08-19T14:49:20.171Z,24.10
2022-08-19T14:51:50.488Z,24.00
2022-08-19T14:54:20.569Z,23.90
2022-08-19T14:56:51.410Z,23.80
2022-08-19T14:59:24.215Z,23.70
2022-08-19T15:01:54.440Z,23.70
2022-08-19T15:04:24.670Z,23.70
2022-08-19T15:06:54.660Z,23.70
2022-08-19T15:09:24.713Z,23.70
2022-08-19T15:11:54.735Z,23.80
2022-08-19T15:14:27.416Z,23.70
2022-08-19T15:16:58.097Z,23.70
2022-08-19T15:19:28.299Z,23.80
2022-08-19T15:21:58.535Z,23.90
2022-08-19T15:24:29.866Z,24.00
2022-08-19T15:26:59.834Z,24.00
2022-08-19T15:29:33.552Z,24.00
2022-08-19T15:32:03.692Z,24.00
2022-08-19T15:34:34.184Z,24.00
2022-08-19T15:37:06.368Z,24.10
2022-08-19T15:39:36.571Z,24.10
2022-08-19T15:42:07.294Z,24.20
2022-08-19T15:44:40.469Z,24.30
2022-08-19T15:47:10.799Z,24.40
2022-08-19T15:49:41.060Z,24.40
2022-08-19T15:52:11.190Z,24.40
2022-08-19T15:54:42.192Z,24.30
2022-08-19T15:57:24.729Z,24.30
2022-08-19T16:00:09.786Z,24.20
2022-08-19T16:02:54.065Z,24.20
2022-08-19T16:05:39.997Z,24.20
2022-08-19T16:08:10.643Z,24.20
2022-08-19T16:10:41.281Z,24.20
2022-08-19T16:13:11.289Z,24.30
2022-08-19T16:15:45.094Z,24.20
2022-08-19T16:18:15.660Z,24.10
2022-08-19T16:20:46.766Z,24.00
2022-08-19T16:23:16.747Z,24.00
2022-08-19T16:25:46.767Z,24.00
2022-08-19T16:28:16.874Z,24.00
2022-08-19T16:30:51.252Z,23.90
2022-08-19T16:33:23.235Z,23.90
2022-08-19T16:36:00.124Z,23.80
2022-08-19T16:38:31.377Z,23.90
2022-08-19T16:41:01.882Z,23.80
2022-08-19T16:43:33.426Z,23.80
2022-08-19T16:46:06.067Z,23.80
2022-08-19T16:48:36.127Z,23.80
2022-08-19T16:51:08.726Z,23.80
2022-08-19T16:53:39.479Z,23.80
2022-08-19T16:56:11.009Z,23.80
2022-08-19T16:58:41.285Z,23.80
2022-08-19T17:01:13.927Z,23.90
2022-08-19T17:03:44.146Z,23.90
2022-08-19T17:06:20.270Z,23.80
2022-08-19T17:08:52.600Z,23.70
2022-08-19T17:11:23.499Z,23.70
2022-08-19T17:13:54.311Z,23.70
2022-08-19T17:16:29.546Z,23.60
2022-08-19T17:19:01.941Z,23.60
2022-08-19T17:21:34.846Z,23.60
2022-08-19T17:24:09.133Z,23.50
2022-08-19T17:26:42.020Z,23.50
2022-08-19T17:29:11.982Z,23.50
2022-08-19T17:31:45.115Z,23.60
2022-08-19T17:34:15.507Z,23.60
2022-08-19T17:36:45.287Z,23.60
2022-08-19T17:39:15.331Z,23.50
2022-08-19T17:41:45.775Z,23.50
2022-08-19T17:44:15.856Z,23.40
2022-08-19T17:46:49.462Z,23.50
2022-08-19T17:49:20.058Z,23.50
2022-08-19T17:51:52.419Z,23.50
2022-08-19T17:54:23.362Z,23.50
2022-08-19T17:57:02.402Z,23.50
2022-08-19T17:59:32.651Z,23.50
2022-08-19T18:02:05.411Z,23.50
2022-08-19T18:04:36.429Z,23.50
2022-08-19T18:07:06.809Z,23.50
2022-08-19T18:09:41.962Z,23.50
2022-08-19T18:12:14.169Z,23.40
2022-08-19T18:14:45.031Z,23.40
2022-08-19T18:17:23.067Z,23.40
2022-08-19T18:19:53.337Z,23.30
2022-08-19T18:22:29.525Z,23.30
2022-08-19T18:25:00.928Z,23.30
2022-08-19T18:27:31.556Z,23.30
2022-08-19T18:30:01.826Z,23.30
2022-08-19T18:32:36.800Z,23.20
2022-08-19T18:35:11.258Z,23.20
2022-08-19T18:37:41.355Z,23.20
2022-08-19T18:40:28.890Z,23.10
2022-08-19T18:43:11.431Z,23.10
2022-08-19T18:45:57.210Z,23.10
2022-08-19T18:48:42.954Z,23.10
2022-08-19T18:51:14.414Z,23.20
2022-08-19T18:53:46.142Z,23.30
2022-08-19T18:56:19.711Z,23.30
2022-08-19T18:58:50.536Z,23.30
2022-08-19T19:01:23.996Z,23.30
2022-08-19T19:03:57.805Z,23.20
2022-08-19T19:06:32.343Z,23.10
2022-08-19T19:09:02.629Z,23.10
2022-08-19T19:11:37.400Z,23.00
2022-08-19T19:14:23.251Z,22.90
2022-08-19T19:17:04.756Z,22.80
2022-08-19T19:19:42.468Z,22.70
2022-08-19T19:22:15.044Z,22.60
2022-08-19T19:24:46.749Z,22.50
2022-08-19T19:27:20.366Z,22.50
2022-08-19T19:29:52.482Z,22.50
2022-08-19T19:35:52.212Z,22.50
2022-08-19T19:38:22.652Z,22.20
2022-08-19T19:40:52.666Z,22.20
2022-08-19T19:43:23.021Z,22.10
2022-08-19T19:45:53.404Z,22.10
2022-08-19T19:48:26.824Z,22.00
2022-08-19T19:51:00.471Z,22.00
2022-08-19T19:53:34.029Z,21.90
2022-08-19T19:56:04.746Z,21.90
2022-08-19T19:58:37.642Z,21.90
2022-08-19T20:01:12.840Z,21.90
2022-08-19T20:03:51.905Z,21.80
2022-08-19T20:06:25.200Z,21.80
2022-08-19T20:09:08.385Z,21.70
2022-08-19T20:11:42.163Z,21.70
2022-08-19T20:14:14.984Z,21.70
2022-08-19T20:16:47.146Z,21.70
2022-08-19T20:19:20.304Z,21.70
2022-08-19T20:21:53.790Z,21.70
2022-08-19T20:24:27.600Z,21.60
2022-08-19T20:26:58.673Z,21.60
2022-08-19T20:29:39.059Z,21.60
2022-08-19T20:32:13.203Z,21.60
2022-08-19T20:34:44.945Z,21.60
2022-08-19T20:37:17.974Z,21.60
2022-08-19T20:39:48.306Z,21.60
2022-08-19T20:42:18.909Z,21.60
2022-08-19T20:44:48.928Z,21.60
2022-08-19T20:47:19.579Z,21.70
2022-08-19T20:49:50.008Z,21.80
2022-08-19T20:52:23.421Z,21.70
2022-08-19T20:54:53.922Z,21.60
2022-08-19T20:57:24.135Z,21.50
2022-08-19T20:59:54.192Z,20.10
2022-08-19T21:02:25.248Z,21.30
2022-08-19T21:04:55.623Z,21.30
2022-08-19T21:07:39.273Z,21.30
2022-08-19T21:10:11.494Z,21.20
2022-08-19T21:12:42.331Z,21.10
2022-08-19T21:15:13.565Z,21.10
2022-08-19T21:17:44.123Z,21.00
2022-08-19T21:20:14.323Z,21.00
2022-08-19T21:22:46.998Z,21.10
2022-08-19T21:25:18.863Z,21.10
2022-08-19T21:27:49.421Z,21.20
2022-08-19T21:30:19.480Z,21.20
2022-08-19T21:32:52.500Z,21.20
2022-08-19T21:35:23.657Z,21.10
2022-08-19T21:37:57.937Z,22.30
2022-08-19T21:40:29.186Z,21.00
2022-08-19T21:42:59.900Z,21.10
2022-08-19T21:45:30.457Z,21.30
2022-08-19T21:48:01.003Z,21.30
2022-08-19T21:50:32.689Z,21.20
2022-08-19T21:53:05.964Z,21.10
2022-08-19T21:55:36.525Z,21.00
2022-08-19T21:58:06.824Z,21.10
2022-08-19T22:00:38.277Z,21.20
2022-08-19T22:03:09.470Z,21.30
2022-08-19T22:05:40.195Z,21.40
2022-08-19T22:08:14.614Z,21.50
2022-08-19T22:10:45.408Z,21.40
2022-08-19T22:13:18.386Z,21.40
2022-08-19T22:15:49.084Z,21.40
2022-08-19T22:18:19.358Z,21.40
2022-08-19T22:20:50.835Z,21.40
2022-08-19T22:23:24.062Z,21.50
2022-08-19T22:25:54.393Z,21.50
2022-08-19T22:28:27.963Z,21.40
2022-08-19T22:30:58.995Z,21.40
2022-08-19T22:33:30.344Z,21.50
2022-08-19T22:36:00.212Z,21.50
2022-08-19T22:38:33.377Z,21.40
2022-08-19T22:41:03.804Z,21.30
2022-08-19T22:43:34.555Z,21.30
2022-08-19T22:46:16.996Z,21.30
2022-08-19T22:48:49.464Z,21.20
2022-08-19T22:51:43.687Z,21.30
2022-08-19T22:54:16.744Z,21.20
2022-08-19T22:56:47.167Z,21.20
2022-08-19T22:59:17.372Z,21.10
2022-08-19T23:01:47.392Z,21.20
2022-08-19T23:04:17.864Z,21.20
2022-08-19T23:06:47.928Z,21.20
2022-08-19T23:09:24.251Z,21.20
2022-08-19T23:11:54.722Z,21.10
2022-08-19T23:14:25.254Z,21.00
2022-08-19T23:16:58.907Z,20.90
2022-08-19T23:19:29.977Z,20.90
2022-08-19T23:22:00.754Z,20.90
2022-08-19T23:24:34.191Z,20.90
2022-08-19T23:27:18.111Z,20.90
2022-08-19T23:30:00.835Z,20.90
2022-08-19T23:32:31.618Z,20.80
2022-08-19T23:35:02.091Z,20.70
2022-08-19T23:37:32.510Z,20.70
2022-08-19T23:40:06.045Z,20.80
2022-08-19T23:42:36.588Z,20.80
2022-08-19T23:45:08.270Z,20.80
2022-08-19T23:47:41.332Z,20.80
2022-08-19T23:50:13.977Z,20.70
2022-08-19T23:52:49.152Z,20.70
2022-08-19T23:55:24.955Z,20.60
2022-08-19T23:57:56.001Z,20.60
